createdAt,value
2018-11-11T00:01:25.770Z,18.20
2018-11-11T00:03:51.578Z,18.20
2018-11-11T00:06:17.412Z,18.10
2018-11-11T00:08:43.627Z,18.10
2018-11-11T00:11:09.852Z,18.20
2018-11-11T00:13:35.663Z,18.10
2018-11-11T00:16:01.488Z,18.10
2018-11-11T00:18:27.305Z,18.20
2018-11-11T00:20:53.536Z,18.20
2018-11-11T00:23:19.353Z,18.20
2018-11-11T00:25:45.163Z,18.10
2018-11-11T00:28:10.988Z,18.20
2018-11-11T00:30:36.827Z,18.20
2018-11-11T00:33:02.820Z,18.20
2018-11-11T00:35:28.853Z,18.20
2018-11-11T00:37:54.670Z,18.20
2018-11-11T00:40:20.900Z,18.10
2018-11-11T00:42:46.699Z,18.10
2018-11-11T00:45:12.532Z,18.10
2018-11-11T00:47:38.343Z,18.20
2018-11-11T00:50:04.570Z,18.20
2018-11-11T00:52:30.390Z,18.20
2018-11-11T00:54:56.208Z,18.20
2018-11-11T00:57:22.025Z,18.10
2018-11-11T00:59:47.839Z,18.20
2018-11-11T01:02:14.070Z,18.10
2018-11-11T01:04:39.874Z,18.00
2018-11-11T01:07:05.691Z,18.00
2018-11-11T01:09:31.519Z,18.10
2018-11-11T01:11:57.750Z,18.10
2018-11-11T01:14:23.559Z,18.10
2018-11-11T01:16:49.374Z,18.20
2018-11-11T01:19:15.200Z,18.10
2018-11-11T01:21:41.017Z,18.10
2018-11-11T01:24:06.831Z,18.10
2018-11-11T01:26:32.660Z,18.20
2018-11-11T01:28:58.478Z,18.10
2018-11-11T01:31:24.698Z,18.10
2018-11-11T01:33:50.495Z,18.10
2018-11-11T01:36:16.325Z,18.00
2018-11-11T01:38:42.135Z,18.10
2018-11-11T01:41:07.955Z,18.00
2018-11-11T01:43:33.774Z,18.10
2018-11-11T01:45:59.603Z,18.10
2018-11-11T01:48:25.822Z,18.10
2018-11-11T01:50:51.631Z,18.10
2018-11-11T01:53:17.465Z,18.20
2018-11-11T01:55:43.277Z,18.20
2018-11-11T01:58:09.495Z,18.20
2018-11-11T02:00:35.311Z,18.10
2018-11-11T02:03:01.132Z,18.10
2018-11-11T02:05:26.952Z,18.10
2018-11-11T02:07:53.183Z,18.10
2018-11-11T02:10:19.001Z,18.10
2018-11-11T02:12:44.818Z,18.10
2018-11-11T02:15:10.619Z,18.10
2018-11-11T02:17:36.447Z,18.10
2018-11-11T02:20:02.273Z,18.10
2018-11-11T02:22:28.075Z,18.10
2018-11-11T02:24:53.904Z,18.10
2018-11-11T02:27:19.717Z,18.10
2018-11-11T02:29:45.546Z,18.20
2018-11-11T02:32:11.352Z,18.20
2018-11-11T02:34:37.173Z,18.10
2018-11-11T02:37:02.991Z,18.10
2018-11-11T02:39:28.804Z,18.10
2018-11-11T02:41:55.027Z,18.10
2018-11-11T02:44:21.252Z,18.20
2018-11-11T02:46:48.056Z,18.10
2018-11-11T02:49:14.121Z,18.10
2018-11-11T02:51:39.941Z,18.00
2018-11-11T02:54:06.168Z,18.00
2018-11-11T02:56:31.967Z,18.10
2018-11-11T02:58:59.031Z,18.10
2018-11-11T03:01:24.890Z,18.10
2018-11-11T03:03:50.654Z,18.00
2018-11-11T03:06:16.470Z,17.90
2018-11-11T03:08:42.304Z,18.00
2018-11-11T03:11:08.119Z,18.00
2018-11-11T03:13:33.931Z,17.90
2018-11-11T03:15:59.745Z,18.00
2018-11-11T03:18:25.569Z,18.00
2018-11-11T03:20:51.382Z,18.00
2018-11-11T03:23:17.203Z,18.00
2018-11-11T03:25:43.008Z,18.00
2018-11-11T03:28:08.828Z,18.00
2018-11-11T03:30:34.651Z,18.00
2018-11-11T03:33:00.469Z,18.00
2018-11-11T03:35:26.281Z,18.00
2018-11-11T03:37:52.111Z,18.10
2018-11-11T03:40:17.924Z,18.00
2018-11-11T03:42:43.734Z,18.10
2018-11-11T03:45:10.376Z,18.10
2018-11-11T03:47:36.193Z,18.00
2018-11-11T03:50:02.004Z,18.10
2018-11-11T03:52:27.823Z,18.00
2018-11-11T03:54:53.650Z,18.00
2018-11-11T03:57:19.459Z,18.00
2018-11-11T03:59:45.279Z,17.90
2018-11-11T04:02:11.106Z,18.00
2018-11-11T04:04:36.907Z,18.00
2018-11-11T04:07:02.732Z,18.00
2018-11-11T04:09:28.543Z,18.00
2018-11-11T04:11:54.365Z,18.20
2018-11-11T04:14:20.178Z,18.00
2018-11-11T04:16:45.994Z,18.10
2018-11-11T04:19:11.816Z,18.10
2018-11-11T04:21:37.634Z,18.10
2018-11-11T04:24:03.452Z,18.10
2018-11-11T04:26:29.678Z,18.10
2018-11-11T04:28:55.499Z,18.10
2018-11-11T04:31:21.724Z,18.00
2018-11-11T04:33:47.531Z,18.00
2018-11-11T04:36:13.351Z,18.00
2018-11-11T04:38:39.162Z,18.00
2018-11-11T04:41:04.987Z,18.00
2018-11-11T04:43:30.807Z,18.00
2018-11-11T04:45:56.628Z,18.00
2018-11-11T04:48:22.444Z,18.00
2018-11-11T04:50:48.259Z,18.00
2018-11-11T04:53:14.067Z,18.10
2018-11-11T04:55:39.906Z,18.00
2018-11-11T04:58:06.122Z,17.90
2018-11-11T05:00:31.925Z,18.00
2018-11-11T05:02:57.751Z,17.90
2018-11-11T05:05:23.563Z,18.00
2018-11-11T05:07:49.389Z,18.10
2018-11-11T05:10:15.201Z,18.00
2018-11-11T05:12:41.008Z,18.00
2018-11-11T05:15:06.831Z,18.00
2018-11-11T05:17:33.072Z,18.10
2018-11-11T05:19:59.286Z,18.10
2018-11-11T05:22:25.097Z,18.00
2018-11-11T05:24:50.927Z,18.00
2018-11-11T05:27:16.735Z,18.10
2018-11-11T05:29:42.551Z,18.00
2018-11-11T05:32:08.383Z,18.10
2018-11-11T05:34:34.599Z,18.10
2018-11-11T05:37:00.424Z,18.10
2018-11-11T05:39:26.234Z,18.10
2018-11-11T05:41:52.054Z,18.00
2018-11-11T05:44:17.863Z,18.10
2018-11-11T05:46:43.688Z,18.00
2018-11-11T05:49:09.509Z,18.00
2018-11-11T05:51:35.310Z,18.00
2018-11-11T05:54:01.141Z,18.00
2018-11-11T05:56:26.958Z,18.00
2018-11-11T05:58:52.775Z,18.00
2018-11-11T06:01:18.580Z,18.00
2018-11-11T06:03:44.394Z,18.00
2018-11-11T06:06:10.226Z,18.10
2018-11-11T06:08:36.042Z,18.10
2018-11-11T06:11:01.861Z,18.00
2018-11-11T06:13:27.666Z,18.10
2018-11-11T06:15:53.495Z,18.10
2018-11-11T06:18:19.711Z,18.10
2018-11-11T06:20:45.532Z,18.10
2018-11-11T06:23:11.343Z,18.10
2018-11-11T06:25:37.162Z,18.10
2018-11-11T06:28:02.986Z,18.10
2018-11-11T06:30:28.799Z,18.00
2018-11-11T06:32:54.621Z,18.00
2018-11-11T06:35:20.424Z,18.10
2018-11-11T06:37:46.249Z,18.00
2018-11-11T06:40:12.070Z,18.00
2018-11-11T06:42:38.293Z,18.20
2018-11-11T06:45:04.107Z,18.00
2018-11-11T06:47:29.928Z,18.00
2018-11-11T06:49:55.755Z,18.00
2018-11-11T06:52:21.563Z,18.00
2018-11-11T06:54:47.379Z,17.90
2018-11-11T06:57:13.203Z,18.00
2018-11-11T06:59:39.019Z,18.00
2018-11-11T07:02:04.823Z,18.00
2018-11-11T07:04:30.647Z,18.00
2018-11-11T07:06:56.473Z,18.00
2018-11-11T07:09:22.295Z,18.10
2018-11-11T07:11:48.104Z,18.10
2018-11-11T07:14:14.007Z,18.00
2018-11-11T07:16:40.144Z,18.00
2018-11-11T07:19:05.961Z,17.80
2018-11-11T07:21:31.780Z,17.90
2018-11-11T07:23:57.599Z,17.90
2018-11-11T07:26:23.471Z,17.70
2018-11-11T07:28:49.981Z,18.00
2018-11-11T07:31:15.869Z,17.90
2018-11-11T07:33:41.686Z,18.10
2018-11-11T07:36:07.993Z,18.10
2018-11-11T07:38:34.138Z,18.20
2018-11-11T07:41:00.955Z,18.40
2018-11-11T07:43:27.003Z,18.50
2018-11-11T07:45:53.231Z,18.50
2018-11-11T07:48:19.473Z,18.60
2018-11-11T07:50:45.675Z,18.70
2018-11-11T07:53:11.500Z,18.80
2018-11-11T07:55:37.328Z,18.90
2018-11-11T07:58:03.127Z,18.90
2018-11-11T08:00:28.949Z,19.00
2018-11-11T08:02:54.763Z,19.10
2018-11-11T08:05:20.582Z,19.10
2018-11-11T08:07:46.401Z,19.10
2018-11-11T08:10:12.221Z,19.30
2018-11-11T08:12:38.034Z,19.30
2018-11-11T08:15:03.857Z,19.30
2018-11-11T08:17:29.670Z,19.40
2018-11-11T08:19:55.479Z,19.40
2018-11-11T08:22:21.307Z,19.40
2018-11-11T08:24:47.115Z,19.50
2018-11-11T08:27:13.341Z,19.50
2018-11-11T08:29:39.162Z,19.50
2018-11-11T08:32:05.024Z,19.50
2018-11-11T08:34:31.206Z,19.60
2018-11-11T08:36:57.024Z,19.60
2018-11-11T08:39:22.840Z,19.60
2018-11-11T08:41:48.655Z,19.70
2018-11-11T08:44:14.472Z,19.80
2018-11-11T08:46:40.279Z,19.80
2018-11-11T08:49:06.114Z,19.80
2018-11-11T08:51:32.337Z,19.90
2018-11-11T08:53:58.152Z,19.90
2018-11-11T08:56:23.963Z,19.80
2018-11-11T08:58:49.778Z,19.90
2018-11-11T09:01:15.604Z,19.90
2018-11-11T09:03:41.417Z,19.90
2018-11-11T09:06:07.240Z,20.00
2018-11-11T09:08:33.055Z,20.00
2018-11-11T09:10:58.873Z,20.10
2018-11-11T09:13:24.689Z,20.10
2018-11-11T09:15:50.501Z,20.10
2018-11-11T09:18:16.735Z,20.10
2018-11-11T09:20:48.693Z,20.10
2018-11-11T09:23:14.917Z,20.20
2018-11-11T09:25:40.738Z,20.20
2018-11-11T09:28:06.964Z,20.20
2018-11-11T09:30:32.871Z,20.20
2018-11-11T09:32:59.010Z,20.30
2018-11-11T09:35:24.908Z,20.30
2018-11-11T09:37:51.046Z,20.30
2018-11-11T09:40:16.859Z,20.30
2018-11-11T09:42:42.733Z,20.30
2018-11-11T09:45:08.919Z,20.40
2018-11-11T09:47:34.773Z,20.40
2018-11-11T09:50:00.967Z,20.30
2018-11-11T09:52:27.201Z,20.40
2018-11-11T09:54:53.001Z,20.50
2018-11-11T09:57:18.818Z,20.50
2018-11-11T09:59:44.749Z,20.50
2018-11-11T10:02:11.262Z,20.50
2018-11-11T10:04:37.092Z,20.50
2018-11-11T10:07:02.937Z,20.60
2018-11-11T10:09:29.148Z,20.50
2018-11-11T10:11:54.955Z,20.50
2018-11-11T10:14:20.773Z,20.50
2018-11-11T10:16:46.586Z,20.50
2018-11-11T10:19:12.409Z,20.60
2018-11-11T10:21:38.228Z,20.60
2018-11-11T10:24:04.049Z,20.60
2018-11-11T10:26:29.859Z,20.70
2018-11-11T10:28:55.687Z,20.70
2018-11-11T10:31:21.504Z,20.70
2018-11-11T10:33:47.324Z,20.60
2018-11-11T10:36:13.141Z,20.70
2018-11-11T10:38:38.948Z,20.70
2018-11-11T10:41:04.775Z,20.70
2018-11-11T10:43:30.599Z,20.70
2018-11-11T10:45:56.719Z,20.60
2018-11-11T10:48:22.640Z,20.70
2018-11-11T10:50:48.458Z,20.70
2018-11-11T10:53:14.273Z,20.70
2018-11-11T10:55:40.095Z,20.70
2018-11-11T10:58:05.903Z,20.80
2018-11-11T11:00:31.714Z,20.80
2018-11-11T11:02:57.534Z,20.80
2018-11-11T11:05:23.376Z,20.80
2018-11-11T11:07:49.600Z,20.80
2018-11-11T11:10:15.402Z,20.90
2018-11-11T11:12:41.228Z,21.00
2018-11-11T11:15:07.440Z,20.80
2018-11-11T11:17:33.272Z,20.80
2018-11-11T11:19:59.088Z,20.80
2018-11-11T11:22:24.912Z,20.90
2018-11-11T11:24:50.734Z,20.90
2018-11-11T11:27:16.598Z,20.80
2018-11-11T11:29:42.786Z,20.80
2018-11-11T11:32:09.111Z,20.90
2018-11-11T11:34:35.637Z,20.80
2018-11-11T11:37:02.679Z,20.80
2018-11-11T11:39:28.502Z,20.90
2018-11-11T11:41:54.323Z,21.00
2018-11-11T11:44:20.179Z,21.00
2018-11-11T11:46:46.771Z,20.90
2018-11-11T11:49:12.587Z,20.90
2018-11-11T11:51:38.407Z,21.00
2018-11-11T11:54:04.219Z,21.00
2018-11-11T11:56:30.047Z,21.00
2018-11-11T11:58:55.864Z,21.00
2018-11-11T12:01:21.682Z,21.10
2018-11-11T12:03:47.492Z,21.10
2018-11-11T12:06:13.343Z,21.10
2018-11-11T12:08:39.608Z,21.00
2018-11-11T12:11:05.786Z,21.00
2018-11-11T12:13:32.011Z,21.10
2018-11-11T12:15:58.261Z,21.10
2018-11-11T12:18:24.883Z,21.10
2018-11-11T12:20:51.092Z,21.10
2018-11-11T12:23:17.379Z,21.10
2018-11-11T12:25:43.975Z,21.10
2018-11-11T12:28:10.205Z,21.10
2018-11-11T12:30:36.415Z,21.10
2018-11-11T12:33:02.658Z,21.20
2018-11-11T12:35:28.864Z,21.30
2018-11-11T12:37:54.677Z,21.20
2018-11-11T12:40:20.561Z,21.20
2018-11-11T12:42:46.724Z,21.20
2018-11-11T12:45:12.547Z,21.30
2018-11-11T12:47:38.367Z,21.30
2018-11-11T12:50:04.215Z,21.20
2018-11-11T12:52:30.819Z,21.30
2018-11-11T12:54:57.049Z,21.30
2018-11-11T12:57:22.858Z,21.40
2018-11-11T12:59:48.680Z,21.30
2018-11-11T13:02:14.499Z,21.30
2018-11-11T13:04:40.388Z,21.30
2018-11-11T13:07:06.952Z,21.30
2018-11-11T13:09:32.761Z,21.30
2018-11-11T13:11:58.634Z,21.30
2018-11-11T13:14:24.817Z,21.30
2018-11-11T13:16:50.628Z,21.40
2018-11-11T13:19:16.455Z,21.40
2018-11-11T13:21:42.279Z,21.30
2018-11-11T13:24:08.497Z,21.30
2018-11-11T13:26:34.307Z,21.30
2018-11-11T13:29:00.131Z,21.40
2018-11-11T13:31:26.357Z,21.30
2018-11-11T13:33:52.175Z,21.30
2018-11-11T13:36:17.996Z,21.30
2018-11-11T13:38:43.814Z,21.40
2018-11-11T13:41:10.041Z,21.50
2018-11-11T13:43:35.859Z,21.30
2018-11-11T13:46:02.090Z,21.30
2018-11-11T13:48:28.316Z,21.40
2018-11-11T13:50:54.540Z,21.50
2018-11-11T13:53:20.349Z,21.40
2018-11-11T13:55:46.591Z,21.60
2018-11-11T13:58:12.812Z,21.50
2018-11-11T14:00:38.650Z,21.60
2018-11-11T14:03:04.857Z,21.50
2018-11-11T14:05:30.927Z,21.40
2018-11-11T14:07:56.900Z,21.50
2018-11-11T14:10:23.127Z,21.60
2018-11-11T14:12:48.950Z,21.60
2018-11-11T14:15:15.175Z,21.50
2018-11-11T14:17:41.401Z,21.60
2018-11-11T14:20:07.627Z,21.60
2018-11-11T14:22:33.852Z,21.60
2018-11-11T14:24:59.678Z,21.60
2018-11-11T14:27:25.480Z,21.50
2018-11-11T14:29:51.312Z,21.50
2018-11-11T14:32:17.281Z,21.60
2018-11-11T14:34:43.354Z,21.50
2018-11-11T14:37:09.163Z,21.50
2018-11-11T14:39:35.055Z,21.60
2018-11-11T14:42:01.219Z,21.70
2018-11-11T14:44:27.031Z,21.70
2018-11-11T14:46:52.838Z,21.60
2018-11-11T14:49:18.659Z,21.60
2018-11-11T14:51:44.507Z,21.70
2018-11-11T14:54:10.719Z,21.70
2018-11-11T14:56:36.519Z,21.60
2018-11-11T14:59:02.357Z,21.60
2018-11-11T15:01:28.590Z,21.60
2018-11-11T15:03:54.836Z,21.60
2018-11-11T15:06:21.030Z,21.60
2018-11-11T15:08:46.851Z,21.60
2018-11-11T15:11:13.071Z,21.60
2018-11-11T15:13:39.231Z,21.60
2018-11-11T15:16:05.136Z,21.60
2018-11-11T15:18:31.353Z,21.60
2018-11-11T15:20:57.304Z,21.60
2018-11-11T15:23:24.615Z,21.70
2018-11-11T15:25:50.438Z,21.70
2018-11-11T15:28:17.326Z,21.60
2018-11-11T15:30:43.389Z,21.60
2018-11-11T15:33:09.532Z,21.70
2018-11-11T15:35:35.339Z,21.70
2018-11-11T15:38:01.161Z,21.70
2018-11-11T15:40:27.004Z,21.70
2018-11-11T15:42:53.221Z,21.70
2018-11-11T15:45:24.766Z,21.80
2018-11-11T15:47:51.014Z,21.80
2018-11-11T15:50:17.220Z,21.80
2018-11-11T15:52:43.449Z,21.80
2018-11-11T15:55:09.264Z,21.90
2018-11-11T15:57:35.500Z,21.80
2018-11-11T16:00:01.366Z,21.80
2018-11-11T16:02:27.536Z,21.80
2018-11-11T16:04:53.764Z,21.90
2018-11-11T16:07:19.581Z,21.90
2018-11-11T16:09:45.393Z,21.90
2018-11-11T16:12:11.219Z,21.90
2018-11-11T16:14:37.034Z,22.00
2018-11-11T16:17:03.108Z,22.00
2018-11-11T16:19:29.088Z,22.10
2018-11-11T16:22:00.654Z,21.80
2018-11-11T16:24:26.866Z,21.70
2018-11-11T16:26:52.684Z,21.70
2018-11-11T16:29:18.502Z,21.60
2018-11-11T16:31:44.725Z,21.60
2018-11-11T16:34:10.543Z,21.60
2018-11-11T16:36:36.462Z,21.70
2018-11-11T16:39:03.481Z,21.60
2018-11-11T16:41:29.863Z,21.60
2018-11-11T16:43:55.906Z,21.60
2018-11-11T16:46:21.703Z,21.70
2018-11-11T16:48:47.903Z,21.80
2018-11-11T16:51:14.184Z,21.80
2018-11-11T16:53:40.378Z,21.80
2018-11-11T16:56:06.594Z,21.80
2018-11-11T16:58:32.830Z,21.80
2018-11-11T17:00:58.648Z,21.80
2018-11-11T17:03:24.905Z,21.80
2018-11-11T17:05:51.500Z,21.90
2018-11-11T17:08:17.321Z,21.90
2018-11-11T17:10:43.543Z,21.90
2018-11-11T17:13:09.354Z,21.90
2018-11-11T17:15:35.191Z,21.90
2018-11-11T17:18:01.399Z,22.00
2018-11-11T17:20:27.316Z,22.10
2018-11-11T17:22:53.525Z,22.10
2018-11-11T17:25:19.317Z,22.10
2018-11-11T17:27:45.506Z,22.10
2018-11-11T17:30:12.111Z,22.20
2018-11-11T17:32:38.066Z,22.20
2018-11-11T17:35:04.609Z,22.30
2018-11-11T17:37:31.195Z,22.40
2018-11-11T17:39:57.421Z,22.30
2018-11-11T17:42:23.241Z,22.40
2018-11-11T17:44:49.467Z,22.40
2018-11-11T17:47:15.267Z,22.40
2018-11-11T17:49:41.104Z,22.40
2018-11-11T17:52:06.906Z,22.40
2018-11-11T17:54:36.890Z,22.40
2018-11-11T17:57:07.135Z,22.50
2018-11-11T17:59:32.981Z,22.50
2018-11-11T18:01:59.282Z,22.60
2018-11-11T18:04:25.416Z,22.60
2018-11-11T18:06:51.221Z,22.50
2018-11-11T18:09:17.041Z,22.60
2018-11-11T18:11:42.871Z,22.70
2018-11-11T18:14:08.710Z,22.60
2018-11-11T18:16:34.904Z,22.60
2018-11-11T18:19:00.725Z,22.60
2018-11-11T18:21:30.640Z,22.40
2018-11-11T18:23:56.444Z,22.20
2018-11-11T18:26:22.345Z,21.90
2018-11-11T18:28:48.899Z,21.60
2018-11-11T18:31:14.731Z,21.60
2018-11-11T18:33:40.556Z,21.60
2018-11-11T18:36:06.798Z,21.60
2018-11-11T18:38:33.015Z,21.60
2018-11-11T18:40:59.241Z,21.60
2018-11-11T18:43:25.048Z,21.60
2018-11-11T18:45:50.907Z,21.50
2018-11-11T18:48:17.104Z,21.40
2018-11-11T18:50:42.929Z,21.40
2018-11-11T18:53:08.743Z,21.30
2018-11-11T18:55:34.561Z,21.30
2018-11-11T18:58:00.372Z,21.20
2018-11-11T19:00:26.196Z,21.20
2018-11-11T19:02:52.031Z,21.10
2018-11-11T19:05:18.232Z,21.00
2018-11-11T19:07:44.072Z,21.00
2018-11-11T19:10:09.974Z,20.90
2018-11-11T19:12:36.102Z,20.90
2018-11-11T19:15:02.009Z,20.80
2018-11-11T19:17:28.156Z,20.70
2018-11-11T19:19:53.966Z,20.60
2018-11-11T19:22:20.194Z,20.60
2018-11-11T19:24:46.068Z,20.60
2018-11-11T19:27:12.251Z,20.50
2018-11-11T19:29:38.062Z,20.50
2018-11-11T19:32:03.922Z,20.50
2018-11-11T19:34:29.699Z,20.50
2018-11-11T19:36:55.498Z,20.50
2018-11-11T19:39:21.323Z,20.50
2018-11-11T19:41:47.154Z,20.50
2018-11-11T19:44:13.366Z,20.40
2018-11-11T19:46:39.185Z,20.40
2018-11-11T19:49:05.011Z,20.30
2018-11-11T19:51:30.849Z,20.30
2018-11-11T19:53:57.061Z,20.30
2018-11-11T19:56:22.875Z,20.30
2018-11-11T19:58:48.702Z,20.30
2018-11-11T20:01:14.503Z,20.30
2018-11-11T20:03:40.319Z,20.30
2018-11-11T20:06:06.147Z,20.20
2018-11-11T20:08:32.269Z,20.20
2018-11-11T20:10:58.192Z,20.20
2018-11-11T20:13:24.002Z,20.20
2018-11-11T20:15:49.830Z,20.20
2018-11-11T20:18:16.057Z,20.20
2018-11-11T20:20:41.877Z,20.20
2018-11-11T20:23:08.117Z,20.10
2018-11-11T20:25:34.320Z,20.10
2018-11-11T20:28:00.176Z,20.10
2018-11-11T20:30:26.367Z,20.00
2018-11-11T20:32:52.199Z,20.00
2018-11-11T20:35:18.019Z,19.90
2018-11-11T20:37:44.024Z,19.90
2018-11-11T20:40:10.063Z,20.00
2018-11-11T20:42:35.867Z,20.00
2018-11-11T20:45:01.685Z,20.00
2018-11-11T20:47:27.511Z,20.00
2018-11-11T20:49:53.531Z,20.00
2018-11-11T20:52:24.872Z,20.00
2018-11-11T20:54:51.100Z,19.90
2018-11-11T20:57:16.915Z,19.90
2018-11-11T20:59:42.744Z,19.80
2018-11-11T21:02:08.558Z,19.80
2018-11-11T21:04:34.783Z,19.80
2018-11-11T21:07:00.596Z,19.80
2018-11-11T21:09:26.843Z,19.80
2018-11-11T21:11:53.051Z,19.80
2018-11-11T21:14:18.867Z,19.80
2018-11-11T21:16:44.695Z,19.80
2018-11-11T21:19:10.495Z,19.80
2018-11-11T21:21:36.322Z,19.80
2018-11-11T21:24:02.138Z,19.70
2018-11-11T21:26:27.967Z,19.70
2018-11-11T21:28:53.772Z,19.70
2018-11-11T21:31:19.600Z,19.70
2018-11-11T21:33:45.410Z,19.70
2018-11-11T21:36:11.660Z,19.70
2018-11-11T21:38:37.872Z,19.70
2018-11-11T21:41:03.679Z,19.70
2018-11-11T21:43:29.504Z,19.60
2018-11-11T21:45:55.381Z,19.60
2018-11-11T21:48:21.548Z,19.60
2018-11-11T21:50:47.775Z,19.60
2018-11-11T21:53:13.660Z,19.60
2018-11-11T21:55:39.535Z,19.60
2018-11-11T21:58:05.433Z,19.60
2018-11-11T22:00:31.477Z,19.70
2018-11-11T22:02:57.715Z,19.60
2018-11-11T22:05:23.507Z,19.60
2018-11-11T22:07:49.318Z,19.50
2018-11-11T22:10:15.135Z,19.60
2018-11-11T22:12:40.948Z,19.50
2018-11-11T22:15:06.774Z,19.50
2018-11-11T22:17:32.592Z,19.50
2018-11-11T22:19:58.395Z,19.50
2018-11-11T22:22:24.290Z,19.50
2018-11-11T22:24:50.456Z,19.40
2018-11-11T22:27:16.261Z,19.40
2018-11-11T22:29:42.094Z,19.40
2018-11-11T22:32:07.895Z,19.40
2018-11-11T22:34:33.725Z,19.40
2018-11-11T22:36:59.534Z,19.40
2018-11-11T22:39:25.361Z,19.50
2018-11-11T22:41:51.178Z,19.50
2018-11-11T22:44:16.986Z,19.50
2018-11-11T22:46:43.223Z,19.40
2018-11-11T22:49:09.039Z,19.40
2018-11-11T22:51:34.860Z,19.40
2018-11-11T22:54:00.676Z,19.30
2018-11-11T22:56:26.490Z,19.40
2018-11-11T22:58:52.330Z,19.50
2018-11-11T23:01:18.552Z,19.60
2018-11-11T23:03:44.752Z,19.40
2018-11-11T23:06:10.571Z,19.30
2018-11-11T23:08:36.390Z,19.30
2018-11-11T23:11:02.207Z,19.30
2018-11-11T23:13:28.031Z,19.20
2018-11-11T23:15:53.888Z,19.20
2018-11-11T23:18:20.067Z,19.20
2018-11-11T23:20:45.899Z,19.30
2018-11-11T23:23:11.715Z,19.20
2018-11-11T23:25:37.528Z,19.20
2018-11-11T23:28:03.351Z,19.20
2018-11-11T23:30:29.162Z,19.20
2018-11-11T23:32:55.398Z,19.20
2018-11-11T23:35:21.415Z,19.30
2018-11-11T23:37:47.441Z,19.30
2018-11-11T23:40:13.663Z,19.30
2018-11-11T23:42:39.524Z,19.20
2018-11-11T23:45:05.507Z,19.20
2018-11-11T23:47:31.524Z,19.20
2018-11-11T23:49:57.331Z,19.20
2018-11-11T23:52:23.161Z,19.20
2018-11-11T23:54:48.980Z,19.20
2018-11-11T23:57:14.798Z,19.20
2018-11-11T23:59:40.616Z,19.20
